createdAt,value
2023-02-17T00:00:30.932Z,53.20
2023-02-17T00:03:02.167Z,48.50
2023-02-17T00:05:30.666Z,48.30
2023-02-17T00:07:59.506Z,51.30
2023-02-17T00:10:28.821Z,54.10
2023-02-17T00:12:56.976Z,49.00
2023-02-17T00:15:26.220Z,48.40
2023-02-17T00:17:54.368Z,50.60
2023-02-17T00:20:25.040Z,50.10
2023-02-17T00:22:53.641Z,52.20
2023-02-17T00:25:21.842Z,51.70
2023-02-17T00:27:50.265Z,58.10
2023-02-17T00:30:18.909Z,51.00
2023-02-17T00:32:48.326Z,48.40
2023-02-17T00:35:16.477Z,50.40
2023-02-17T00:37:45.710Z,49.20
2023-02-17T00:40:14.373Z,47.90
2023-02-17T00:42:45.270Z,51.10
2023-02-17T00:45:13.705Z,49.40
2023-02-17T00:47:41.914Z,48.10
2023-02-17T00:50:11.677Z,46.80
2023-02-17T00:52:39.975Z,48.90
2023-02-17T00:55:09.255Z,51.30
2023-02-17T00:57:37.789Z,51.10
2023-02-17T01:00:06.862Z,48.20
2023-02-17T01:02:35.875Z,45.20
2023-02-17T01:05:04.987Z,45.80
2023-02-17T01:07:33.452Z,41.60
2023-02-17T01:10:05.406Z,43.60
2023-02-17T01:12:35.091Z,44.50
2023-02-17T01:15:03.603Z,46.60
2023-02-17T01:17:33.171Z,44.90
2023-02-17T01:20:01.878Z,44.70
2023-02-17T01:22:34.800Z,46.70
2023-02-17T01:25:04.286Z,43.00
2023-02-17T01:27:32.730Z,49.00
2023-02-17T01:30:01.310Z,44.70
2023-02-17T01:32:29.660Z,44.90
2023-02-17T01:34:57.855Z,47.60
2023-02-17T01:37:26.019Z,48.60
2023-02-17T01:39:56.034Z,46.60
2023-02-17T01:42:25.168Z,41.30
2023-02-17T01:45:19.555Z,45.40
2023-02-17T01:47:51.112Z,46.60
2023-02-17T01:50:21.524Z,44.60
2023-02-17T01:52:50.032Z,48.90
2023-02-17T01:55:19.196Z,54.00
2023-02-17T01:57:47.454Z,52.90
2023-02-17T02:00:17.524Z,65.30
2023-02-17T02:02:47.274Z,68.00
2023-02-17T02:05:16.697Z,63.20
2023-02-17T02:07:46.520Z,72.20
2023-02-17T02:10:15.046Z,71.90
2023-02-17T02:12:44.289Z,79.70
2023-02-17T02:15:22.472Z,81.40
2023-02-17T02:18:09.111Z,78.60
2023-02-17T02:20:43.275Z,83.60
2023-02-17T02:23:30.356Z,106.60
2023-02-17T02:26:35.960Z,92.60
2023-02-17T02:29:38.928Z,74.40
2023-02-17T02:32:25.882Z,59.00
2023-02-17T02:35:15.024Z,50.20
2023-02-17T02:37:45.620Z,51.30
2023-02-17T02:40:15.933Z,47.20
2023-02-17T02:42:44.533Z,48.80
2023-02-17T02:45:12.894Z,48.70
2023-02-17T02:47:55.456Z,43.60
2023-02-17T02:50:48.155Z,46.40
2023-02-17T02:53:29.125Z,38.00
2023-02-17T02:56:16.413Z,40.70
2023-02-17T02:59:06.182Z,42.70
2023-02-17T03:01:43.655Z,36.90
2023-02-17T03:04:21.306Z,34.70
2023-02-17T03:06:55.478Z,37.30
2023-02-17T03:09:27.502Z,34.00
2023-02-17T03:11:56.537Z,39.10
2023-02-17T03:14:25.928Z,36.90
2023-02-17T03:16:54.138Z,37.30
2023-02-17T03:19:22.984Z,37.80
2023-02-17T03:22:19.829Z,38.10
2023-02-17T03:24:49.191Z,38.20
2023-02-17T03:27:17.612Z,39.20
2023-02-17T03:29:46.381Z,41.40
2023-02-17T03:32:14.998Z,46.50
2023-02-17T03:34:43.151Z,43.40
2023-02-17T03:37:11.284Z,43.30
2023-02-17T03:39:39.879Z,49.70
2023-02-17T03:42:08.049Z,52.30
2023-02-17T03:44:36.406Z,50.50
2023-02-17T03:47:09.276Z,51.40
2023-02-17T03:49:37.932Z,51.40
2023-02-17T03:52:06.067Z,49.10
2023-02-17T03:54:35.260Z,45.90
2023-02-17T03:57:03.637Z,45.70
2023-02-17T03:59:33.261Z,47.90
2023-02-17T04:02:01.774Z,47.60
2023-02-17T04:04:30.134Z,47.10
2023-02-17T04:06:58.783Z,45.80
2023-02-17T04:09:32.842Z,45.00
2023-02-17T04:12:01.024Z,43.10
2023-02-17T04:14:29.508Z,39.60
2023-02-17T04:16:59.816Z,39.70
2023-02-17T04:19:28.050Z,39.10
2023-02-17T04:21:58.158Z,38.30
2023-02-17T04:24:26.471Z,37.90
2023-02-17T04:26:56.321Z,34.80
2023-02-17T04:29:24.740Z,35.30
2023-02-17T04:31:53.090Z,34.90
2023-02-17T04:34:22.434Z,32.10
2023-02-17T04:36:50.990Z,33.00
2023-02-17T04:39:19.319Z,30.60
2023-02-17T04:41:47.518Z,33.70
2023-02-17T04:44:15.891Z,33.40
2023-02-17T04:46:44.230Z,34.10
2023-02-17T04:49:12.781Z,32.60
2023-02-17T04:51:41.184Z,31.50
2023-02-17T04:54:10.807Z,32.10
2023-02-17T04:56:38.994Z,29.10
2023-02-17T04:59:07.671Z,30.00
2023-02-17T05:01:35.997Z,30.70
2023-02-17T05:04:08.660Z,30.50
2023-02-17T05:06:37.639Z,29.70
2023-02-17T05:09:06.292Z,28.30
2023-02-17T05:11:35.025Z,31.10
2023-02-17T05:14:03.428Z,30.20
2023-02-17T05:16:32.483Z,31.80
2023-02-17T05:19:00.766Z,30.90
2023-02-17T05:21:30.074Z,30.60
2023-02-17T05:23:58.501Z,28.70
2023-02-17T05:26:27.014Z,29.50
2023-02-17T05:28:55.544Z,31.50
2023-02-17T05:31:24.479Z,28.50
2023-02-17T05:33:55.901Z,30.60
2023-02-17T05:36:24.120Z,29.60
2023-02-17T05:38:52.732Z,30.80
2023-02-17T05:41:20.956Z,29.30
2023-02-17T05:43:49.611Z,25.00
2023-02-17T05:46:19.494Z,26.70
2023-02-17T05:48:48.771Z,25.90
2023-02-17T05:51:21.755Z,23.50
2023-02-17T05:53:49.973Z,24.40
2023-02-17T05:56:18.216Z,25.60
2023-02-17T05:58:47.956Z,24.90
2023-02-17T06:01:16.214Z,23.70
2023-02-17T06:03:44.469Z,26.40
2023-02-17T06:06:12.874Z,23.90
2023-02-17T06:08:41.676Z,23.60
2023-02-17T06:11:11.813Z,25.30
2023-02-17T06:13:41.120Z,23.40
2023-02-17T06:16:14.400Z,25.10
2023-02-17T06:18:45.587Z,23.50
2023-02-17T06:21:13.885Z,23.90
2023-02-17T06:23:42.244Z,23.90
2023-02-17T06:26:10.498Z,25.20
2023-02-17T06:28:38.679Z,24.80
2023-02-17T06:31:07.343Z,24.00
2023-02-17T06:33:35.587Z,22.20
2023-02-17T06:36:04.920Z,23.50
2023-02-17T06:38:33.760Z,22.70
2023-02-17T06:41:01.968Z,22.20
2023-02-17T06:43:32.815Z,25.90
2023-02-17T06:46:01.063Z,23.70
2023-02-17T06:48:33.085Z,23.30
2023-02-17T06:51:01.333Z,23.30
2023-02-17T06:53:29.859Z,22.40
2023-02-17T06:55:58.371Z,21.70
2023-02-17T06:58:26.681Z,22.00
2023-02-17T07:00:55.644Z,20.50
2023-02-17T07:03:24.077Z,24.20
2023-02-17T07:05:56.463Z,24.20
2023-02-17T07:08:24.944Z,22.90
2023-02-17T07:10:53.403Z,25.60
2023-02-17T07:13:23.374Z,26.20
2023-02-17T07:15:51.590Z,25.50
2023-02-17T07:18:20.986Z,22.30
2023-02-17T07:20:49.402Z,21.50
2023-02-17T07:23:17.841Z,24.10
2023-02-17T07:25:46.584Z,20.80
2023-02-17T07:28:14.775Z,25.40
2023-02-17T07:30:43.976Z,21.40
2023-02-17T07:33:14.096Z,21.90
2023-02-17T07:35:46.019Z,20.50
2023-02-17T07:38:15.614Z,21.50
2023-02-17T07:40:43.857Z,21.20
2023-02-17T07:43:12.788Z,21.10
2023-02-17T07:45:41.033Z,21.00
2023-02-17T07:48:10.068Z,21.50
2023-02-17T07:51:04.429Z,19.90
2023-02-17T07:53:33.059Z,19.20
2023-02-17T07:56:09.113Z,21.40
2023-02-17T07:58:39.354Z,20.50
2023-02-17T08:01:14.501Z,19.80
2023-02-17T08:03:43.213Z,22.00
2023-02-17T08:06:14.075Z,22.80
2023-02-17T08:09:01.509Z,23.70
2023-02-17T08:11:50.052Z,23.30
2023-02-17T08:14:18.474Z,23.10
2023-02-17T08:16:50.941Z,22.80
2023-02-17T08:19:19.233Z,22.20
2023-02-17T08:21:47.485Z,22.90
2023-02-17T08:24:19.847Z,20.90
2023-02-17T08:26:51.676Z,22.20
2023-02-17T08:29:21.066Z,21.90
2023-02-17T08:31:52.143Z,22.40
2023-02-17T08:34:20.705Z,23.00
2023-02-17T08:36:48.961Z,25.80
2023-02-17T08:39:17.586Z,37.20
2023-02-17T08:41:46.872Z,26.30
2023-02-17T08:44:20.302Z,44.70
2023-02-17T08:46:48.876Z,41.80
2023-02-17T08:49:20.335Z,32.60
2023-02-17T08:51:48.550Z,26.60
2023-02-17T08:54:17.243Z,24.60
2023-02-17T08:56:46.329Z,26.20
2023-02-17T08:59:14.698Z,25.00
2023-02-17T09:01:43.995Z,25.00
2023-02-17T09:04:13.037Z,27.40
2023-02-17T09:06:52.041Z,25.60
2023-02-17T09:09:22.717Z,24.50
2023-02-17T09:11:51.029Z,24.50
2023-02-17T09:14:19.478Z,22.90
2023-02-17T09:16:47.646Z,25.50
2023-02-17T09:19:16.157Z,24.80
2023-02-17T09:21:45.718Z,23.40
2023-02-17T09:24:15.079Z,24.20
2023-02-17T09:26:43.884Z,28.20
2023-02-17T09:29:12.087Z,39.30
2023-02-17T09:31:42.740Z,28.60
2023-02-17T09:34:11.142Z,31.30
2023-02-17T09:36:40.507Z,28.20
2023-02-17T09:39:12.283Z,28.70
2023-02-17T09:41:47.966Z,25.60
2023-02-17T09:44:23.869Z,29.20
2023-02-17T09:47:08.294Z,25.10
2023-02-17T09:49:42.379Z,29.40
2023-02-17T09:52:20.583Z,24.30
2023-02-17T09:54:52.205Z,21.80
2023-02-17T09:57:21.549Z,23.80
2023-02-17T09:59:56.124Z,24.40
2023-02-17T10:02:35.429Z,24.60
2023-02-17T10:05:06.390Z,24.60
2023-02-17T10:07:47.212Z,25.60
2023-02-17T10:10:21.103Z,22.10
2023-02-17T10:12:52.105Z,22.40
2023-02-17T10:15:42.268Z,20.60
2023-02-17T10:18:26.783Z,24.40
2023-02-17T10:21:01.872Z,21.70
2023-02-17T10:23:30.588Z,23.20
2023-02-17T10:26:12.265Z,25.30
2023-02-17T10:28:51.078Z,21.70
2023-02-17T10:31:26.504Z,24.90
2023-02-17T10:34:04.130Z,21.90
2023-02-17T10:36:59.756Z,19.80
2023-02-17T10:39:49.861Z,22.90
2023-02-17T10:42:41.351Z,20.40
2023-02-17T10:45:33.573Z,20.50
2023-02-17T10:48:09.540Z,20.80
2023-02-17T10:50:41.301Z,21.70
2023-02-17T10:53:22.942Z,21.40
2023-02-17T10:55:51.141Z,20.70
2023-02-17T10:58:41.611Z,22.80
2023-02-17T11:01:10.200Z,20.20
2023-02-17T11:03:41.218Z,20.60
2023-02-17T11:06:19.382Z,22.30
2023-02-17T11:08:53.063Z,19.50
2023-02-17T11:11:30.616Z,19.00
2023-02-17T11:14:19.748Z,20.30
2023-02-17T11:16:54.770Z,19.80
2023-02-17T11:19:28.496Z,21.70
2023-02-17T11:21:58.809Z,19.30
2023-02-17T11:24:27.416Z,19.80
2023-02-17T11:27:00.064Z,19.80
2023-02-17T11:29:29.883Z,22.60
2023-02-17T11:31:59.403Z,21.50
2023-02-17T11:34:29.615Z,21.00
2023-02-17T11:37:00.327Z,21.10
2023-02-17T11:39:28.828Z,21.10
2023-02-17T11:41:57.840Z,23.30
2023-02-17T11:44:29.029Z,20.20
2023-02-17T11:47:04.563Z,20.30
2023-02-17T11:49:52.028Z,20.00
2023-02-17T11:52:42.059Z,21.40
2023-02-17T11:55:21.418Z,21.60
2023-02-17T11:58:12.204Z,18.40
2023-02-17T12:01:11.415Z,22.90
2023-02-17T12:03:43.273Z,22.20
2023-02-17T12:06:17.379Z,20.80
2023-02-17T12:08:52.582Z,18.90
2023-02-17T12:11:33.574Z,22.70
2023-02-17T12:14:39.545Z,18.50
2023-02-17T12:17:24.357Z,22.50
2023-02-17T12:20:14.874Z,21.10
2023-02-17T12:22:55.834Z,19.50
2023-02-17T12:25:38.380Z,21.30
2023-02-17T12:28:41.987Z,21.50
2023-02-17T12:31:35.956Z,26.10
2023-02-17T12:34:16.191Z,25.00
2023-02-17T12:36:44.378Z,21.40
2023-02-17T12:39:18.821Z,24.00
2023-02-17T12:41:51.359Z,24.40
2023-02-17T12:44:26.606Z,22.80
2023-02-17T12:46:57.720Z,24.20
2023-02-17T12:49:31.016Z,24.20
2023-02-17T12:52:11.271Z,27.00
2023-02-17T12:54:45.166Z,25.80
2023-02-17T12:57:48.904Z,24.40
2023-02-17T13:00:30.233Z,24.50
2023-02-17T13:02:59.616Z,24.90
2023-02-17T13:05:38.079Z,24.70
2023-02-17T13:08:11.705Z,26.20
2023-02-17T13:10:40.820Z,28.30
2023-02-17T13:13:17.161Z,27.40
2023-02-17T13:15:46.470Z,27.30
2023-02-17T13:18:36.404Z,27.30
2023-02-17T13:21:23.380Z,27.60
2023-02-17T13:24:36.745Z,27.00
2023-02-17T13:27:33.212Z,28.40
2023-02-17T13:30:17.493Z,26.30
2023-02-17T13:32:46.707Z,29.00
2023-02-17T13:35:25.077Z,28.80
2023-02-17T13:37:53.230Z,26.30
2023-02-17T13:40:22.611Z,25.90
2023-02-17T13:45:26.513Z,26.00
2023-02-17T13:47:59.479Z,25.30
2023-02-17T13:50:32.198Z,27.10
2023-02-17T13:53:02.004Z,26.60
2023-02-17T13:55:32.394Z,31.80
2023-02-17T13:58:01.003Z,29.20
2023-02-17T14:00:34.331Z,29.70
2023-02-17T14:03:32.382Z,30.40
2023-02-17T14:06:01.249Z,28.40
2023-02-17T14:08:39.943Z,29.50
2023-02-17T14:11:09.360Z,30.30
2023-02-17T14:13:40.312Z,29.10
2023-02-17T14:16:35.367Z,26.90
2023-02-17T14:19:19.162Z,27.70
2023-02-17T14:21:56.496Z,26.50
2023-02-17T14:24:35.738Z,30.50
2023-02-17T14:27:08.872Z,32.70
2023-02-17T14:29:43.008Z,32.60
2023-02-17T14:32:32.994Z,29.60
2023-02-17T14:35:20.060Z,31.80
2023-02-17T14:37:48.939Z,30.60
2023-02-17T14:40:26.378Z,29.30
2023-02-17T14:42:55.417Z,33.70
2023-02-17T14:45:24.538Z,30.70
2023-02-17T14:47:53.474Z,29.00
2023-02-17T14:50:21.756Z,30.20
2023-02-17T14:52:50.024Z,28.00
2023-02-17T14:55:41.363Z,33.30
2023-02-17T14:58:20.754Z,28.80
2023-02-17T15:00:49.114Z,28.20
2023-02-17T15:03:21.009Z,22.70
2023-02-17T15:05:49.726Z,29.10
2023-02-17T15:08:21.519Z,31.20
2023-02-17T15:10:50.649Z,32.80
2023-02-17T15:13:21.062Z,37.50
2023-02-17T15:15:53.177Z,37.70
2023-02-17T15:18:23.190Z,31.00
2023-02-17T15:20:51.631Z,64.90
2023-02-17T15:23:22.288Z,55.40
2023-02-17T15:25:52.142Z,40.10
2023-02-17T15:28:21.576Z,36.50
2023-02-17T15:30:53.259Z,33.20
2023-02-17T15:33:23.250Z,30.60
2023-02-17T15:35:53.792Z,32.10
2023-02-17T15:38:22.538Z,35.90
2023-02-17T15:40:51.143Z,38.00
2023-02-17T15:43:21.380Z,35.10
2023-02-17T15:45:49.521Z,37.50
2023-02-17T15:48:24.308Z,34.20
2023-02-17T15:50:53.349Z,32.60
2023-02-17T15:53:22.088Z,37.10
2023-02-17T15:55:50.517Z,35.50
2023-02-17T15:58:20.366Z,31.70
2023-02-17T16:00:50.517Z,38.70
2023-02-17T16:03:19.075Z,36.00
2023-02-17T16:05:48.114Z,33.30
2023-02-17T16:08:16.329Z,37.00
2023-02-17T16:10:50.345Z,33.70
2023-02-17T16:13:26.477Z,36.80
2023-02-17T16:15:58.218Z,35.10
2023-02-17T16:18:26.545Z,34.20
2023-02-17T16:20:55.147Z,35.10
2023-02-17T16:23:23.292Z,36.30
2023-02-17T16:25:51.529Z,31.80
2023-02-17T16:28:21.067Z,32.50
2023-02-17T16:30:49.769Z,36.50
2023-02-17T16:33:18.220Z,36.20
2023-02-17T16:35:46.609Z,55.80
2023-02-17T16:38:23.196Z,68.80
2023-02-17T16:40:52.690Z,64.30
2023-02-17T16:43:26.993Z,52.00
2023-02-17T16:45:58.711Z,40.70
2023-02-17T16:48:29.146Z,40.60
2023-02-17T16:50:57.359Z,38.30
2023-02-17T16:53:25.788Z,38.50
2023-02-17T16:55:55.358Z,39.80
2023-02-17T16:58:24.889Z,41.60
2023-02-17T17:00:55.049Z,43.60
2023-02-17T17:03:23.421Z,40.90
2023-02-17T17:05:52.457Z,45.30
2023-02-17T17:08:22.165Z,44.50
2023-02-17T17:10:53.604Z,43.10
2023-02-17T17:13:23.615Z,46.20
2023-02-17T17:15:51.998Z,48.60
2023-02-17T17:18:21.269Z,50.50
2023-02-17T17:20:50.169Z,45.30
2023-02-17T17:23:20.258Z,45.80
2023-02-17T17:25:48.713Z,45.20
2023-02-17T17:28:19.231Z,47.20
2023-02-17T17:30:49.374Z,43.50
2023-02-17T17:33:17.737Z,49.50
2023-02-17T17:35:46.231Z,48.30
2023-02-17T17:38:15.702Z,46.90
2023-02-17T17:40:55.871Z,42.10
2023-02-17T17:43:24.919Z,43.90
2023-02-17T17:45:54.742Z,49.10
2023-02-17T17:48:23.013Z,45.00
2023-02-17T17:50:52.608Z,52.90
2023-02-17T17:53:22.600Z,48.10
2023-02-17T17:55:50.725Z,50.20
2023-02-17T17:58:21.376Z,44.40
2023-02-17T18:00:53.133Z,43.70
2023-02-17T18:03:23.134Z,44.90
2023-02-17T18:05:51.343Z,50.70
2023-02-17T18:08:20.248Z,48.30
2023-02-17T18:10:48.492Z,46.20
2023-02-17T18:13:22.589Z,50.20
2023-02-17T18:15:51.561Z,45.60
2023-02-17T18:18:20.287Z,48.60
2023-02-17T18:20:48.465Z,44.80
2023-02-17T18:23:17.618Z,46.40
2023-02-17T18:25:46.379Z,51.40
2023-02-17T18:28:14.699Z,51.10
2023-02-17T18:30:43.207Z,50.90
2023-02-17T18:33:14.647Z,45.70
2023-02-17T18:35:46.118Z,46.70
2023-02-17T18:38:14.967Z,47.20
2023-02-17T18:40:44.063Z,47.30
2023-02-17T18:43:12.262Z,47.20
2023-02-17T18:45:40.482Z,46.20
2023-02-17T18:48:09.471Z,42.40
2023-02-17T18:50:37.727Z,45.70
2023-02-17T18:53:06.347Z,49.60
2023-02-17T18:55:37.366Z,51.00
2023-02-17T18:58:05.621Z,50.80
2023-02-17T19:00:34.149Z,61.90
2023-02-17T19:03:06.101Z,57.00
2023-02-17T19:05:34.562Z,46.50
2023-02-17T19:08:10.254Z,63.00
2023-02-17T19:10:39.714Z,64.60
2023-02-17T19:13:07.924Z,57.50
2023-02-17T19:15:38.059Z,61.50
2023-02-17T19:18:06.314Z,54.20
2023-02-17T19:20:34.711Z,45.20
2023-02-17T19:23:03.074Z,45.30
2023-02-17T19:25:31.714Z,40.50
2023-02-17T19:28:00.591Z,43.90
2023-02-17T19:30:28.949Z,43.60
2023-02-17T19:32:58.018Z,49.30
2023-02-17T19:35:27.276Z,43.80
2023-02-17T19:37:56.110Z,46.20
2023-02-17T19:40:25.039Z,44.50
2023-02-17T19:42:55.510Z,38.50
2023-02-17T19:45:23.674Z,41.90
2023-02-17T19:47:51.888Z,44.50
2023-02-17T19:50:20.580Z,40.20
2023-02-17T19:52:49.067Z,40.10
2023-02-17T19:55:17.569Z,39.70
2023-02-17T19:57:45.834Z,41.10
2023-02-17T20:00:15.209Z,43.50
2023-02-17T20:02:43.613Z,40.70
2023-02-17T20:05:12.385Z,40.80
2023-02-17T20:07:40.964Z,40.70
2023-02-17T20:10:14.926Z,38.70
2023-02-17T20:12:44.547Z,40.10
2023-02-17T20:15:13.635Z,38.30
2023-02-17T20:17:44.649Z,44.00
2023-02-17T20:20:12.802Z,40.60
2023-02-17T20:22:40.940Z,43.70
2023-02-17T20:25:09.191Z,41.70
2023-02-17T20:27:37.870Z,45.50
2023-02-17T20:30:06.724Z,42.70
2023-02-17T20:32:37.187Z,43.30
2023-02-17T20:35:06.242Z,45.70
2023-02-17T20:37:34.792Z,40.30
2023-02-17T20:40:04.155Z,40.80
2023-02-17T20:42:33.184Z,40.50
2023-02-17T20:45:01.698Z,43.90
2023-02-17T20:47:30.316Z,39.10
2023-02-17T20:49:59.105Z,40.60
2023-02-17T20:52:27.888Z,40.40
2023-02-17T20:54:56.103Z,38.30
2023-02-17T20:57:26.143Z,37.70
2023-02-17T20:59:54.305Z,37.10
2023-02-17T21:02:26.477Z,41.50
2023-02-17T21:04:54.749Z,40.40
2023-02-17T21:07:23.473Z,40.00
2023-02-17T21:09:53.247Z,37.80
2023-02-17T21:12:21.513Z,39.20
2023-02-17T21:14:50.040Z,40.60
2023-02-17T21:17:21.454Z,41.60
2023-02-17T21:19:50.662Z,38.70
2023-02-17T21:22:21.980Z,40.20
2023-02-17T21:24:50.484Z,35.90
2023-02-17T21:27:19.409Z,38.60
2023-02-17T21:29:47.703Z,39.20
2023-02-17T21:32:16.031Z,42.20
2023-02-17T21:34:44.372Z,39.10
2023-02-17T21:37:12.824Z,40.30
2023-02-17T21:39:41.204Z,40.70
2023-02-17T21:42:09.578Z,42.30
2023-02-17T21:44:53.190Z,44.70
2023-02-17T21:47:21.812Z,41.00
2023-02-17T21:49:53.404Z,38.50
2023-02-17T21:52:22.074Z,42.50
2023-02-17T21:54:51.934Z,45.00
2023-02-17T21:57:20.144Z,41.70
2023-02-17T21:59:53.949Z,42.60
2023-02-17T22:02:23.369Z,40.90
2023-02-17T22:04:56.102Z,41.30
2023-02-17T22:07:25.208Z,41.30
2023-02-17T22:09:53.673Z,44.70
2023-02-17T22:12:22.048Z,41.20
2023-02-17T22:14:50.661Z,43.50
2023-02-17T22:17:20.960Z,43.30
2023-02-17T22:19:49.206Z,45.30
2023-02-17T22:22:17.358Z,43.40
2023-02-17T22:24:45.996Z,45.30
2023-02-17T22:27:14.291Z,38.30
2023-02-17T22:29:42.482Z,46.80
2023-02-17T22:32:10.623Z,47.40
2023-02-17T22:34:38.881Z,46.30
2023-02-17T22:37:08.128Z,42.30
2023-02-17T22:39:36.837Z,41.10
2023-02-17T22:42:06.921Z,46.50
2023-02-17T22:44:35.152Z,40.40
2023-02-17T22:47:03.851Z,44.20
2023-02-17T22:49:32.072Z,45.20
2023-02-17T22:52:00.398Z,44.40
2023-02-17T22:54:30.611Z,42.00
2023-02-17T22:56:58.936Z,41.60
2023-02-17T22:59:27.224Z,46.30
2023-02-17T23:02:00.085Z,46.90
2023-02-17T23:04:29.023Z,43.50
2023-02-17T23:06:59.270Z,44.20
2023-02-17T23:09:27.703Z,45.60
2023-02-17T23:11:58.419Z,41.60
2023-02-17T23:14:35.557Z,46.00
2023-02-17T23:17:06.576Z,45.60
2023-02-17T23:19:36.760Z,46.00
2023-02-17T23:22:07.451Z,46.90
2023-02-17T23:24:35.635Z,45.30
2023-02-17T23:27:04.207Z,44.60
2023-02-17T23:29:32.781Z,46.70
2023-02-17T23:32:01.528Z,48.70
2023-02-17T23:34:30.218Z,47.80
2023-02-17T23:36:59.135Z,46.20
2023-02-17T23:39:27.515Z,45.80
2023-02-17T23:41:56.516Z,45.90
2023-02-17T23:44:24.789Z,46.00
2023-02-17T23:46:52.910Z,49.40
2023-02-17T23:49:22.155Z,47.60
2023-02-17T23:51:50.391Z,48.80
2023-02-17T23:54:18.882Z,51.40
2023-02-17T23:56:47.054Z,47.80
2023-02-17T23:59:15.322Z,50.50
